sensor_id;sensor_type;location;lat;lon;timestamp;P1;P2;P0
48893;PMS5003;34710;35.798;139.446;2023-06-24T00:02:14;7;7;
48893;PMS5003;34710;35.798;139.446;2023-06-24T00:04:39;7;7;
48893;PMS5003;34710;35.798;139.446;2023-06-24T00:07:04;6;6;
48893;PMS5003;34710;35.798;139.446;2023-06-24T00:09:29;7;7;
48893;PMS5003;34710;35.798;139.446;2023-06-24T00:11:54;6;6;
48893;PMS5003;34710;35.798;139.446;2023-06-24T00:14:19;9;8;
48893;PMS5003;34710;35.798;139.446;2023-06-24T00:16:44;8;8;
48893;PMS5003;34710;35.798;139.446;2023-06-24T00:19:10;7;7;
48893;PMS5003;34710;35.798;139.446;2023-06-24T00:21:34;7;7;
48893;PMS5003;34710;35.798;139.446;2023-06-24T00:24:00;8;8;
48893;PMS5003;34710;35.798;139.446;2023-06-24T00:26:24;6;6;
48893;PMS5003;34710;35.798;139.446;2023-06-24T00:28:49;5;4;
48893;PMS5003;34710;35.798;139.446;2023-06-24T00:31:15;6;4;
48893;PMS5003;34710;35.798;139.446;2023-06-24T00:33:40;8;8;
48893;PMS5003;34710;35.798;139.446;2023-06-24T00:36:05;9;8;
48893;PMS5003;34710;35.798;139.446;2023-06-24T00:38:30;7;7;
48893;PMS5003;34710;35.798;139.446;2023-06-24T00:40:55;7;7;
48893;PMS5003;34710;35.798;139.446;2023-06-24T00:43:20;7;7;
48893;PMS5003;34710;35.798;139.446;2023-06-24T00:45:45;7;7;
48893;PMS5003;34710;35.798;139.446;2023-06-24T00:48:10;9;7;
48893;PMS5003;34710;35.798;139.446;2023-06-24T00:50:35;7;7;
48893;PMS5003;34710;35.798;139.446;2023-06-24T00:53:00;8;8;
48893;PMS5003;34710;35.798;139.446;2023-06-24T00:55:25;6;6;
48893;PMS5003;34710;35.798;139.446;2023-06-24T00:57:51;17;6;
48893;PMS5003;34710;35.798;139.446;2023-06-24T01:00:17;6;6;
48893;PMS5003;34710;35.798;139.446;2023-06-24T01:02:41;7;6;
48893;PMS5003;34710;35.798;139.446;2023-06-24T01:05:06;6;6;
48893;PMS5003;34710;35.798;139.446;2023-06-24T01:07:31;8;7;
48893;PMS5003;34710;35.798;139.446;2023-06-24T01:09:56;5;5;
48893;PMS5003;34710;35.798;139.446;2023-06-24T01:12:21;7;6;
48893;PMS5003;34710;35.798;139.446;2023-06-24T01:14:46;8;8;
48893;PMS5003;34710;35.798;139.446;2023-06-24T01:17:12;6;6;
48893;PMS5003;34710;35.798;139.446;2023-06-24T01:22:06;10;9;
48893;PMS5003;34710;35.798;139.446;2023-06-24T01:24:31;8;7;
48893;PMS5003;34710;35.798;139.446;2023-06-24T01:26:56;11;8;
48893;PMS5003;34710;35.798;139.446;2023-06-24T01:31:41;9;9;
48893;PMS5003;34710;35.798;139.446;2023-06-24T01:34:08;9;9;
48893;PMS5003;34710;35.798;139.446;2023-06-24T01:36:31;9;9;
48893;PMS5003;34710;35.798;139.446;2023-06-24T01:38:58;7;7;
48893;PMS5003;34710;35.798;139.446;2023-06-24T01:41:23;8;8;
48893;PMS5003;34710;35.798;139.446;2023-06-24T01:43:46;9;8;
48893;PMS5003;34710;35.798;139.446;2023-06-24T01:46:11;9;9;
48893;PMS5003;34710;35.798;139.446;2023-06-24T01:48:36;10;8;
48893;PMS5003;34710;35.798;139.446;2023-06-24T01:51:03;8;8;
48893;PMS5003;34710;35.798;139.446;2023-06-24T01:53:27;8;8;
48893;PMS5003;34710;35.798;139.446;2023-06-24T01:55:52;9;8;
48893;PMS5003;34710;35.798;139.446;2023-06-24T01:58:17;7;7;
48893;PMS5003;34710;35.798;139.446;2023-06-24T02:00:42;8;8;
48893;PMS5003;34710;35.798;139.446;2023-06-24T02:03:07;6;6;
48893;PMS5003;34710;35.798;139.446;2023-06-24T02:05:32;9;8;
48893;PMS5003;34710;35.798;139.446;2023-06-24T02:07:57;9;9;
48893;PMS5003;34710;35.798;139.446;2023-06-24T02:10:22;9;9;
48893;PMS5003;34710;35.798;139.446;2023-06-24T02:12:50;9;9;
48893;PMS5003;34710;35.798;139.446;2023-06-24T02:15:12;8;8;
48893;PMS5003;34710;35.798;139.446;2023-06-24T02:17:37;10;10;
48893;PMS5003;34710;35.798;139.446;2023-06-24T02:20:04;10;9;
48893;PMS5003;34710;35.798;139.446;2023-06-24T02:22:28;10;10;
48893;PMS5003;34710;35.798;139.446;2023-06-24T02:24:53;8;8;
48893;PMS5003;34710;35.798;139.446;2023-06-24T02:27:18;9;8;
48893;PMS5003;34710;35.798;139.446;2023-06-24T02:29:43;11;11;
48893;PMS5003;34710;35.798;139.446;2023-06-24T02:32:09;11;11;
48893;PMS5003;34710;35.798;139.446;2023-06-24T02:34:33;9;9;
48893;PMS5003;34710;35.798;139.446;2023-06-24T02:36:59;11;10;
48893;PMS5003;34710;35.798;139.446;2023-06-24T02:39:24;13;12;
48893;PMS5003;34710;35.798;139.446;2023-06-24T02:41:49;9;9;
48893;PMS5003;34710;35.798;139.446;2023-06-24T02:44:14;9;9;
48893;PMS5003;34710;35.798;139.446;2023-06-24T02:46:39;13;11;
48893;PMS5003;34710;35.798;139.446;2023-06-24T02:49:04;13;13;
48893;PMS5003;34710;35.798;139.446;2023-06-24T02:51:29;12;12;
48893;PMS5003;34710;35.798;139.446;2023-06-24T02:53:54;10;10;
48893;PMS5003;34710;35.798;139.446;2023-06-24T02:56:19;14;11;
48893;PMS5003;34710;35.798;139.446;2023-06-24T02:58:44;11;11;
48893;PMS5003;34710;35.798;139.446;2023-06-24T03:01:09;11;11;
48893;PMS5003;34710;35.798;139.446;2023-06-24T03:03:35;12;12;
48893;PMS5003;34710;35.798;139.446;2023-06-24T03:05:59;12;12;
48893;PMS5003;34710;35.798;139.446;2023-06-24T03:08:24;13;13;
48893;PMS5003;34710;35.798;139.446;2023-06-24T03:10:50;14;13;
48893;PMS5003;34710;35.798;139.446;2023-06-24T03:13:14;13;13;
48893;PMS5003;34710;35.798;139.446;2023-06-24T03:15:39;16;16;
48893;PMS5003;34710;35.798;139.446;2023-06-24T03:18:05;13;13;
48893;PMS5003;34710;35.798;139.446;2023-06-24T03:20:31;17;16;
48893;PMS5003;34710;35.798;139.446;2023-06-24T03:22:56;15;15;
48893;PMS5003;34710;35.798;139.446;2023-06-24T03:25:21;18;16;
48893;PMS5003;34710;35.798;139.446;2023-06-24T03:27:46;13;13;
48893;PMS5003;34710;35.798;139.446;2023-06-24T03:30:11;16;16;
48893;PMS5003;34710;35.798;139.446;2023-06-24T03:32:36;22;16;
48893;PMS5003;34710;35.798;139.446;2023-06-24T03:35:02;16;14;
48893;PMS5003;34710;35.798;139.446;2023-06-24T03:37:27;23;15;
48893;PMS5003;34710;35.798;139.446;2023-06-24T03:39:53;19;16;
48893;PMS5003;34710;35.798;139.446;2023-06-24T03:42:18;16;16;
48893;PMS5003;34710;35.798;139.446;2023-06-24T03:44:43;21;18;
48893;PMS5003;34710;35.798;139.446;2023-06-24T03:47:08;22;19;
48893;PMS5003;34710;35.798;139.446;2023-06-24T03:49:33;16;16;
48893;PMS5003;34710;35.798;139.446;2023-06-24T03:51:58;29;20;
48893;PMS5003;34710;35.798;139.446;2023-06-24T03:54:24;33;20;
48893;PMS5003;34710;35.798;139.446;2023-06-24T03:56:49;22;21;
48893;PMS5003;34710;35.798;139.446;2023-06-24T03:59:14;24;18;
48893;PMS5003;34710;35.798;139.446;2023-06-24T04:01:40;18;18;
48893;PMS5003;34710;35.798;139.446;2023-06-24T04:04:05;20;17;
48893;PMS5003;34710;35.798;139.446;2023-06-24T04:06:31;21;21;
48893;PMS5003;34710;35.798;139.446;2023-06-24T04:08:56;29;23;
48893;PMS5003;34710;35.798;139.446;2023-06-24T04:11:21;24;19;
48893;PMS5003;34710;35.798;139.446;2023-06-24T04:13:47;23;21;
48893;PMS5003;34710;35.798;139.446;2023-06-24T04:16:12;21;21;
48893;PMS5003;34710;35.798;139.446;2023-06-24T04:18:37;22;18;
48893;PMS5003;34710;35.798;139.446;2023-06-24T04:21:02;24;22;
48893;PMS5003;34710;35.798;139.446;2023-06-24T04:23:28;23;23;
48893;PMS5003;34710;35.798;139.446;2023-06-24T04:25:53;24;18;
48893;PMS5003;34710;35.798;139.446;2023-06-24T04:28:18;22;21;
48893;PMS5003;34710;35.798;139.446;2023-06-24T04:30:43;21;20;
48893;PMS5003;34710;35.798;139.446;2023-06-24T04:33:09;19;19;
48893;PMS5003;34710;35.798;139.446;2023-06-24T04:35:34;21;19;
48893;PMS5003;34710;35.798;139.446;2023-06-24T04:37:59;22;21;
48893;PMS5003;34710;35.798;139.446;2023-06-24T04:40:24;23;22;
48893;PMS5003;34710;35.798;139.446;2023-06-24T04:42:50;19;18;
48893;PMS5003;34710;35.798;139.446;2023-06-24T04:45:15;20;20;
48893;PMS5003;34710;35.798;139.446;2023-06-24T04:47:40;28;20;
48893;PMS5003;34710;35.798;139.446;2023-06-24T04:50:05;19;17;
48893;PMS5003;34710;35.798;139.446;2023-06-24T04:52:30;19;19;
48893;PMS5003;34710;35.798;139.446;2023-06-24T04:54:55;21;19;
48893;PMS5003;34710;35.798;139.446;2023-06-24T04:57:25;34;19;
48893;PMS5003;34710;35.798;139.446;2023-06-24T04:59:46;21;20;
48893;PMS5003;34710;35.798;139.446;2023-06-24T05:02:11;30;19;
48893;PMS5003;34710;35.798;139.446;2023-06-24T05:04:36;22;20;
48893;PMS5003;34710;35.798;139.446;2023-06-24T05:07:02;19;17;
48893;PMS5003;34710;35.798;139.446;2023-06-24T05:09:26;22;21;
48893;PMS5003;34710;35.798;139.446;2023-06-24T05:11:52;20;19;
48893;PMS5003;34710;35.798;139.446;2023-06-24T05:14:17;18;17;
48893;PMS5003;34710;35.798;139.446;2023-06-24T05:16:43;21;20;
48893;PMS5003;34710;35.798;139.446;2023-06-24T05:19:08;20;18;
48893;PMS5003;34710;35.798;139.446;2023-06-24T05:21:34;24;17;
48893;PMS5003;34710;35.798;139.446;2023-06-24T05:23:59;16;16;
48893;PMS5003;34710;35.798;139.446;2023-06-24T05:26:25;16;16;
48893;PMS5003;34710;35.798;139.446;2023-06-24T05:28:50;22;19;
48893;PMS5003;34710;35.798;139.446;2023-06-24T05:31:15;15;15;
48893;PMS5003;34710;35.798;139.446;2023-06-24T05:33:41;16;15;
48893;PMS5003;34710;35.798;139.446;2023-06-24T05:36:06;18;16;
48893;PMS5003;34710;35.798;139.446;2023-06-24T05:38:32;18;17;
48893;PMS5003;34710;35.798;139.446;2023-06-24T05:40:56;19;19;
48893;PMS5003;34710;35.798;139.446;2023-06-24T05:43:21;16;16;
48893;PMS5003;34710;35.798;139.446;2023-06-24T05:45:47;24;21;
48893;PMS5003;34710;35.798;139.446;2023-06-24T05:48:13;25;18;
48893;PMS5003;34710;35.798;139.446;2023-06-24T05:50:38;17;17;
48893;PMS5003;34710;35.798;139.446;2023-06-24T05:53:03;16;15;
48893;PMS5003;34710;35.798;139.446;2023-06-24T05:55:28;19;17;
48893;PMS5003;34710;35.798;139.446;2023-06-24T05:57:53;17;16;
48893;PMS5003;34710;35.798;139.446;2023-06-24T06:00:19;15;15;
48893;PMS5003;34710;35.798;139.446;2023-06-24T06:02:44;25;19;
48893;PMS5003;34710;35.798;139.446;2023-06-24T06:05:09;18;18;
48893;PMS5003;34710;35.798;139.446;2023-06-24T06:07:34;31;18;
48893;PMS5003;34710;35.798;139.446;2023-06-24T06:09:59;19;18;
48893;PMS5003;34710;35.798;139.446;2023-06-24T06:12:24;18;16;
48893;PMS5003;34710;35.798;139.446;2023-06-24T06:14:50;15;15;
48893;PMS5003;34710;35.798;139.446;2023-06-24T06:17:15;17;16;
48893;PMS5003;34710;35.798;139.446;2023-06-24T06:19:40;18;17;
48893;PMS5003;34710;35.798;139.446;2023-06-24T06:22:06;21;18;
48893;PMS5003;34710;35.798;139.446;2023-06-24T06:24:31;20;18;
48893;PMS5003;34710;35.798;139.446;2023-06-24T06:26:57;18;17;
48893;PMS5003;34710;35.798;139.446;2023-06-24T06:29:21;20;18;
48893;PMS5003;34710;35.798;139.446;2023-06-24T06:31:47;21;15;
48893;PMS5003;34710;35.798;139.446;2023-06-24T06:34:13;20;18;
48893;PMS5003;34710;35.798;139.446;2023-06-24T06:36:38;29;21;
48893;PMS5003;34710;35.798;139.446;2023-06-24T06:39:04;30;19;
48893;PMS5003;34710;35.798;139.446;2023-06-24T06:41:29;18;18;
48893;PMS5003;34710;35.798;139.446;2023-06-24T06:43:54;24;20;
48893;PMS5003;34710;35.798;139.446;2023-06-24T06:46:19;20;17;
48893;PMS5003;34710;35.798;139.446;2023-06-24T06:48:45;20;20;
48893;PMS5003;34710;35.798;139.446;2023-06-24T06:51:12;19;18;
48893;PMS5003;34710;35.798;139.446;2023-06-24T06:53:36;20;20;
48893;PMS5003;34710;35.798;139.446;2023-06-24T06:56:01;20;18;
48893;PMS5003;34710;35.798;139.446;2023-06-24T06:58:26;21;20;
48893;PMS5003;34710;35.798;139.446;2023-06-24T07:00:51;21;18;
48893;PMS5003;34710;35.798;139.446;2023-06-24T07:03:17;31;19;
48893;PMS5003;34710;35.798;139.446;2023-06-24T07:05:42;28;17;
48893;PMS5003;34710;35.798;139.446;2023-06-24T07:08:07;19;17;
48893;PMS5003;34710;35.798;139.446;2023-06-24T07:10:33;35;24;
48893;PMS5003;34710;35.798;139.446;2023-06-24T07:12:59;36;34;
48893;PMS5003;34710;35.798;139.446;2023-06-24T07:15:25;41;35;
48893;PMS5003;34710;35.798;139.446;2023-06-24T07:17:50;39;37;
48893;PMS5003;34710;35.798;139.446;2023-06-24T07:20:15;42;37;
48893;PMS5003;34710;35.798;139.446;2023-06-24T07:22:40;39;36;
48893;PMS5003;34710;35.798;139.446;2023-06-24T07:25:06;40;36;
48893;PMS5003;34710;35.798;139.446;2023-06-24T07:27:31;36;35;
48893;PMS5003;34710;35.798;139.446;2023-06-24T07:29:56;37;35;
48893;PMS5003;34710;35.798;139.446;2023-06-24T07:32:22;51;35;
48893;PMS5003;34710;35.798;139.446;2023-06-24T07:34:47;35;34;
48893;PMS5003;34710;35.798;139.446;2023-06-24T07:37:12;40;37;
48893;PMS5003;34710;35.798;139.446;2023-06-24T07:39:38;50;39;
48893;PMS5003;34710;35.798;139.446;2023-06-24T07:42:04;47;35;
48893;PMS5003;34710;35.798;139.446;2023-06-24T07:44:29;52;41;
48893;PMS5003;34710;35.798;139.446;2023-06-24T07:46:54;55;39;
48893;PMS5003;34710;35.798;139.446;2023-06-24T07:49:19;35;33;
48893;PMS5003;34710;35.798;139.446;2023-06-24T07:51:45;43;38;
48893;PMS5003;34710;35.798;139.446;2023-06-24T07:54:10;45;34;
48893;PMS5003;34710;35.798;139.446;2023-06-24T07:56:36;40;37;
48893;PMS5003;34710;35.798;139.446;2023-06-24T07:59:01;35;33;
48893;PMS5003;34710;35.798;139.446;2023-06-24T08:01:26;44;35;
48893;PMS5003;34710;35.798;139.446;2023-06-24T08:03:51;41;35;
48893;PMS5003;34710;35.798;139.446;2023-06-24T08:06:17;44;35;
48893;PMS5003;34710;35.798;139.446;2023-06-24T08:08:43;46;39;
48893;PMS5003;34710;35.798;139.446;2023-06-24T08:11:08;39;36;
48893;PMS5003;34710;35.798;139.446;2023-06-24T08:13:34;34;33;
48893;PMS5003;34710;35.798;139.446;2023-06-24T08:15:59;48;36;
48893;PMS5003;34710;35.798;139.446;2023-06-24T08:18:25;48;40;
48893;PMS5003;34710;35.798;139.446;2023-06-24T08:20:51;53;39;
48893;PMS5003;34710;35.798;139.446;2023-06-24T08:23:16;41;39;
48893;PMS5003;34710;35.798;139.446;2023-06-24T08:25:42;48;42;
48893;PMS5003;34710;35.798;139.446;2023-06-24T08:28:08;43;38;
48893;PMS5003;34710;35.798;139.446;2023-06-24T08:30:33;44;38;
48893;PMS5003;34710;35.798;139.446;2023-06-24T08:32:58;44;36;
48893;PMS5003;34710;35.798;139.446;2023-06-24T08:35:23;34;32;
48893;PMS5003;34710;35.798;139.446;2023-06-24T08:37:49;46;34;
48893;PMS5003;34710;35.798;139.446;2023-06-24T08:40:14;39;34;
48893;PMS5003;34710;35.798;139.446;2023-06-24T08:42:39;43;38;
48893;PMS5003;34710;35.798;139.446;2023-06-24T08:45:06;56;38;
48893;PMS5003;34710;35.798;139.446;2023-06-24T08:47:31;46;35;
48893;PMS5003;34710;35.798;139.446;2023-06-24T08:49:58;45;32;
48893;PMS5003;34710;35.798;139.446;2023-06-24T08:52:21;51;39;
48893;PMS5003;34710;35.798;139.446;2023-06-24T08:54:49;44;35;
48893;PMS5003;34710;35.798;139.446;2023-06-24T08:57:12;45;39;
48893;PMS5003;34710;35.798;139.446;2023-06-24T08:59:36;43;36;
48893;PMS5003;34710;35.798;139.446;2023-06-24T09:02:02;41;35;
48893;PMS5003;34710;35.798;139.446;2023-06-24T09:04:28;49;35;
48893;PMS5003;34710;35.798;139.446;2023-06-24T09:06:53;37;31;
48893;PMS5003;34710;35.798;139.446;2023-06-24T09:09:19;40;37;
48893;PMS5003;34710;35.798;139.446;2023-06-24T09:11:45;39;36;
48893;PMS5003;34710;35.798;139.446;2023-06-24T09:14:09;46;36;
48893;PMS5003;34710;35.798;139.446;2023-06-24T09:16:35;42;35;
48893;PMS5003;34710;35.798;139.446;2023-06-24T09:19:01;40;34;
48893;PMS5003;34710;35.798;139.446;2023-06-24T09:21:27;49;37;
48893;PMS5003;34710;35.798;139.446;2023-06-24T09:23:53;40;38;
48893;PMS5003;34710;35.798;139.446;2023-06-24T09:26:18;41;33;
48893;PMS5003;34710;35.798;139.446;2023-06-24T09:28:47;45;31;
48893;PMS5003;34710;35.798;139.446;2023-06-24T09:31:09;34;33;
48893;PMS5003;34710;35.798;139.446;2023-06-24T09:33:33;36;33;
48893;PMS5003;34710;35.798;139.446;2023-06-24T09:35:59;35;32;
48893;PMS5003;34710;35.798;139.446;2023-06-24T09:40:49;41;34;
48893;PMS5003;34710;35.798;139.446;2023-06-24T09:43:16;40;31;
48893;PMS5003;34710;35.798;139.446;2023-06-24T09:45:39;46;32;
48893;PMS5003;34710;35.798;139.446;2023-06-24T09:48:05;44;31;
48893;PMS5003;34710;35.798;139.446;2023-06-24T09:50:30;35;34;
48893;PMS5003;34710;35.798;139.446;2023-06-24T09:52:55;38;33;
48893;PMS5003;34710;35.798;139.446;2023-06-24T09:55:20;44;35;
48893;PMS5003;34710;35.798;139.446;2023-06-24T09:57:46;51;31;
48893;PMS5003;34710;35.798;139.446;2023-06-24T10:00:13;52;33;
48893;PMS5003;34710;35.798;139.446;2023-06-24T10:02:36;38;34;
48893;PMS5003;34710;35.798;139.446;2023-06-24T10:05:02;42;33;
48893;PMS5003;34710;35.798;139.446;2023-06-24T10:07:27;36;31;
48893;PMS5003;34710;35.798;139.446;2023-06-24T10:09:53;40;35;
48893;PMS5003;34710;35.798;139.446;2023-06-24T10:12:19;28;28;
48893;PMS5003;34710;35.798;139.446;2023-06-24T10:14:43;39;34;
48893;PMS5003;34710;35.798;139.446;2023-06-24T10:17:09;37;31;
48893;PMS5003;34710;35.798;139.446;2023-06-24T10:19:38;38;35;
48893;PMS5003;34710;35.798;139.446;2023-06-24T10:22:01;38;32;
48893;PMS5003;34710;35.798;139.446;2023-06-24T10:24:28;42;31;
48893;PMS5003;34710;35.798;139.446;2023-06-24T10:26:52;40;32;
48893;PMS5003;34710;35.798;139.446;2023-06-24T10:29:18;44;32;
48893;PMS5003;34710;35.798;139.446;2023-06-24T10:31:52;47;33;
48893;PMS5003;34710;35.798;139.446;2023-06-24T10:36:34;35;31;
48893;PMS5003;34710;35.798;139.446;2023-06-24T10:39:00;38;34;
48893;PMS5003;34710;35.798;139.446;2023-06-24T10:41:25;50;34;
48893;PMS5003;34710;35.798;139.446;2023-06-24T10:43:50;33;31;
48893;PMS5003;34710;35.798;139.446;2023-06-24T10:46:15;46;32;
48893;PMS5003;34710;35.798;139.446;2023-06-24T10:48:41;45;32;
48893;PMS5003;34710;35.798;139.446;2023-06-24T10:51:06;47;34;
48893;PMS5003;34710;35.798;139.446;2023-06-24T10:53:31;30;30;
48893;PMS5003;34710;35.798;139.446;2023-06-24T10:55:57;43;33;
48893;PMS5003;34710;35.798;139.446;2023-06-24T10:58:22;50;35;
48893;PMS5003;34710;35.798;139.446;2023-06-24T11:00:47;34;29;
48893;PMS5003;34710;35.798;139.446;2023-06-24T11:03:13;33;33;
48893;PMS5003;34710;35.798;139.446;2023-06-24T11:05:39;42;33;
48893;PMS5003;34710;35.798;139.446;2023-06-24T11:08:04;39;30;
48893;PMS5003;34710;35.798;139.446;2023-06-24T11:10:29;44;28;
48893;PMS5003;34710;35.798;139.446;2023-06-24T11:12:55;33;33;
48893;PMS5003;34710;35.798;139.446;2023-06-24T11:15:20;36;34;
48893;PMS5003;34710;35.798;139.446;2023-06-24T11:17:45;37;36;
48893;PMS5003;34710;35.798;139.446;2023-06-24T11:20:11;36;34;
48893;PMS5003;34710;35.798;139.446;2023-06-24T11:22:36;44;33;
48893;PMS5003;34710;35.798;139.446;2023-06-24T11:25:01;37;31;
48893;PMS5003;34710;35.798;139.446;2023-06-24T11:27:27;51;32;
48893;PMS5003;34710;35.798;139.446;2023-06-24T11:29:52;32;31;
48893;PMS5003;34710;35.798;139.446;2023-06-24T11:32:17;35;32;
48893;PMS5003;34710;35.798;139.446;2023-06-24T11:34:42;39;32;
48893;PMS5003;34710;35.798;139.446;2023-06-24T11:37:10;34;32;
48893;PMS5003;34710;35.798;139.446;2023-06-24T11:39:34;33;33;
48893;PMS5003;34710;35.798;139.446;2023-06-24T11:41:59;37;34;
48893;PMS5003;34710;35.798;139.446;2023-06-24T11:44:25;52;31;
48893;PMS5003;34710;35.798;139.446;2023-06-24T11:46:51;47;31;
48893;PMS5003;34710;35.798;139.446;2023-06-24T11:49:16;32;29;
48893;PMS5003;34710;35.798;139.446;2023-06-24T11:51:47;45;35;
48893;PMS5003;34710;35.798;139.446;2023-06-24T11:54:08;44;29;
48893;PMS5003;34710;35.798;139.446;2023-06-24T11:56:34;44;30;
48893;PMS5003;34710;35.798;139.446;2023-06-24T11:58:58;39;29;
48893;PMS5003;34710;35.798;139.446;2023-06-24T12:03:48;38;29;
48893;PMS5003;34710;35.798;139.446;2023-06-24T12:06:14;38;32;
48893;PMS5003;34710;35.798;139.446;2023-06-24T12:08:39;31;31;
48893;PMS5003;34710;35.798;139.446;2023-06-24T12:11:05;33;33;
48893;PMS5003;34710;35.798;139.446;2023-06-24T12:13:30;39;35;
48893;PMS5003;34710;35.798;139.446;2023-06-24T12:15:55;46;32;
48893;PMS5003;34710;35.798;139.446;2023-06-24T12:18:21;30;30;
48893;PMS5003;34710;35.798;139.446;2023-06-24T12:20:46;38;29;
48893;PMS5003;34710;35.798;139.446;2023-06-24T12:23:11;38;34;
48893;PMS5003;34710;35.798;139.446;2023-06-24T12:25:37;35;31;
48893;PMS5003;34710;35.798;139.446;2023-06-24T12:28:03;34;32;
48893;PMS5003;34710;35.798;139.446;2023-06-24T12:30:29;42;34;
48893;PMS5003;34710;35.798;139.446;2023-06-24T12:32:54;42;31;
48893;PMS5003;34710;35.798;139.446;2023-06-24T12:35:19;40;34;
48893;PMS5003;34710;35.798;139.446;2023-06-24T12:37:45;34;30;
48893;PMS5003;34710;35.798;139.446;2023-06-24T12:40:10;39;31;
48893;PMS5003;34710;35.798;139.446;2023-06-24T12:42:36;53;36;
48893;PMS5003;34710;35.798;139.446;2023-06-24T12:45:01;35;32;
48893;PMS5003;34710;35.798;139.446;2023-06-24T12:47:26;36;35;
48893;PMS5003;34710;35.798;139.446;2023-06-24T12:49:51;41;35;
48893;PMS5003;34710;35.798;139.446;2023-06-24T12:52:16;49;36;
48893;PMS5003;34710;35.798;139.446;2023-06-24T12:54:42;38;34;
48893;PMS5003;34710;35.798;139.446;2023-06-24T12:57:07;49;38;
48893;PMS5003;34710;35.798;139.446;2023-06-24T12:59:33;42;35;
48893;PMS5003;34710;35.798;139.446;2023-06-24T13:01:58;40;36;
48893;PMS5003;34710;35.798;139.446;2023-06-24T13:04:24;47;36;
48893;PMS5003;34710;35.798;139.446;2023-06-24T13:06:50;45;41;
48893;PMS5003;34710;35.798;139.446;2023-06-24T13:09:15;50;37;
48893;PMS5003;34710;35.798;139.446;2023-06-24T13:11:40;48;39;
48893;PMS5003;34710;35.798;139.446;2023-06-24T13:14:05;51;39;
48893;PMS5003;34710;35.798;139.446;2023-06-24T13:16:30;48;39;
48893;PMS5003;34710;35.798;139.446;2023-06-24T13:18:55;47;39;
48893;PMS5003;34710;35.798;139.446;2023-06-24T13:21:21;44;43;
48893;PMS5003;34710;35.798;139.446;2023-06-24T13:23:47;53;37;
48893;PMS5003;34710;35.798;139.446;2023-06-24T13:26:12;51;43;
48893;PMS5003;34710;35.798;139.446;2023-06-24T13:28:38;41;37;
48893;PMS5003;34710;35.798;139.446;2023-06-24T13:31:03;53;42;
48893;PMS5003;34710;35.798;139.446;2023-06-24T13:33:28;51;45;
48893;PMS5003;34710;35.798;139.446;2023-06-24T13:35:54;55;38;
48893;PMS5003;34710;35.798;139.446;2023-06-24T13:38:20;54;44;
48893;PMS5003;34710;35.798;139.446;2023-06-24T13:40:45;46;41;
48893;PMS5003;34710;35.798;139.446;2023-06-24T13:43:11;48;41;
48893;PMS5003;34710;35.798;139.446;2023-06-24T13:45:36;48;37;
48893;PMS5003;34710;35.798;139.446;2023-06-24T13:48:01;43;38;
48893;PMS5003;34710;35.798;139.446;2023-06-24T13:50:27;43;40;
48893;PMS5003;34710;35.798;139.446;2023-06-24T13:52:52;50;43;
48893;PMS5003;34710;35.798;139.446;2023-06-24T13:55:18;62;44;
48893;PMS5003;34710;35.798;139.446;2023-06-24T13:57:43;47;43;
48893;PMS5003;34710;35.798;139.446;2023-06-24T14:00:09;48;41;
48893;PMS5003;34710;35.798;139.446;2023-06-24T14:02:34;52;39;
48893;PMS5003;34710;35.798;139.446;2023-06-24T14:05:00;54;40;
48893;PMS5003;34710;35.798;139.446;2023-06-24T14:07:25;51;41;
48893;PMS5003;34710;35.798;139.446;2023-06-24T14:09:51;59;42;
48893;PMS5003;34710;35.798;139.446;2023-06-24T14:12:16;48;40;
48893;PMS5003;34710;35.798;139.446;2023-06-24T14:14:41;44;36;
48893;PMS5003;34710;35.798;139.446;2023-06-24T14:17:07;59;41;
48893;PMS5003;34710;35.798;139.446;2023-06-24T14:19:32;51;39;
48893;PMS5003;34710;35.798;139.446;2023-06-24T14:21:57;49;40;
48893;PMS5003;34710;35.798;139.446;2023-06-24T14:24:23;51;45;
48893;PMS5003;34710;35.798;139.446;2023-06-24T14:26:49;50;41;
48893;PMS5003;34710;35.798;139.446;2023-06-24T14:29:15;48;38;
48893;PMS5003;34710;35.798;139.446;2023-06-24T14:31:40;61;43;
48893;PMS5003;34710;35.798;139.446;2023-06-24T14:34:05;57;44;
48893;PMS5003;34710;35.798;139.446;2023-06-24T14:36:31;51;45;
48893;PMS5003;34710;35.798;139.446;2023-06-24T14:38:56;48;39;
48893;PMS5003;34710;35.798;139.446;2023-06-24T14:41:22;45;40;
48893;PMS5003;34710;35.798;139.446;2023-06-24T14:43:47;45;41;
48893;PMS5003;34710;35.798;139.446;2023-06-24T14:46:12;56;42;
48893;PMS5003;34710;35.798;139.446;2023-06-24T14:48:38;53;43;
48893;PMS5003;34710;35.798;139.446;2023-06-24T14:51:03;60;43;
48893;PMS5003;34710;35.798;139.446;2023-06-24T14:53:29;48;39;
48893;PMS5003;34710;35.798;139.446;2023-06-24T14:55:54;56;42;
48893;PMS5003;34710;35.798;139.446;2023-06-24T14:58:20;45;39;
48893;PMS5003;34710;35.798;139.446;2023-06-24T15:00:45;49;39;
48893;PMS5003;34710;35.798;139.446;2023-06-24T15:03:10;54;44;
48893;PMS5003;34710;35.798;139.446;2023-06-24T15:05:35;60;47;
48893;PMS5003;34710;35.798;139.446;2023-06-24T15:08:01;58;43;
48893;PMS5003;34710;35.798;139.446;2023-06-24T15:10:27;62;46;
48893;PMS5003;34710;35.798;139.446;2023-06-24T15:12:53;52;41;
48893;PMS5003;34710;35.798;139.446;2023-06-24T15:15:18;49;41;
48893;PMS5003;34710;35.798;139.446;2023-06-24T15:17:44;51;40;
48893;PMS5003;34710;35.798;139.446;2023-06-24T15:20:09;53;44;
48893;PMS5003;34710;35.798;139.446;2023-06-24T15:22:34;51;44;
48893;PMS5003;34710;35.798;139.446;2023-06-24T15:25:00;52;45;
48893;PMS5003;34710;35.798;139.446;2023-06-24T15:27:24;56;44;
48893;PMS5003;34710;35.798;139.446;2023-06-24T15:29:50;48;47;
48893;PMS5003;34710;35.798;139.446;2023-06-24T15:32:15;59;43;
48893;PMS5003;34710;35.798;139.446;2023-06-24T15:34:41;45;41;
48893;PMS5003;34710;35.798;139.446;2023-06-24T15:37:06;51;45;
48893;PMS5003;34710;35.798;139.446;2023-06-24T15:39:31;53;41;
48893;PMS5003;34710;35.798;139.446;2023-06-24T15:41:56;52;44;
48893;PMS5003;34710;35.798;139.446;2023-06-24T15:44:21;52;45;
48893;PMS5003;34710;35.798;139.446;2023-06-24T15:46:47;54;43;
48893;PMS5003;34710;35.798;139.446;2023-06-24T15:49:13;58;45;
48893;PMS5003;34710;35.798;139.446;2023-06-24T15:51:38;65;47;